UKHH/HRK METAR and TAF weather

Enter ICAO airport designator
Station Type Date Time Source
UKHH METAR 2020/06/02 12:00 UTC NOAA

UKHH 021200Z 22003MPS 9999 BKN038 17/08 Q1008 R25/0///81 NOSIG


Station Type Date Time Source
UKHH Decoded METAR 2020/06/02 12:00 UTC NOAA

Kharkiv, Ukraine (UKHH) 49-58N 036-08E 155M
Jun 02, 2020 - 08:00 AM EDT / 2020.06.02 1200 UTC
Wind: from the SW (220 degrees) at 7 MPH (6 KT):0
Visibility: greater than 7 mile(s):0
Sky conditions: mostly cloudy
Temperature: 62 F (17 C)
Dew Point: 46 F (8 C)
Relative Humidity: 55%
Pressure (altimeter): 29.77 in. Hg (1008 hPa)
ob: UKHH 021200Z 22003MPS 9999 BKN038 17/08 Q1008 R25/0///81 NOSIG
cycle: 12

Station Type Date Time Source
UKHH TAF 2020/06/02 12:24 UTC NOAA

TAF UKHH 021105Z 0212/0312 23006MPS 9999 BKN020CB BKN030 PROB40
TEMPO 0212/0218 25009G16MPS 2100 -TSRAGR
BECMG 0218/0220 2100 BR BKN005
BECMG 0306/0307 9999 NSW SCT020CB BKN030
TEMPO 0309/0312 2100 -SHRA BKN007 BKN026CB

Example: see airport list